Time;durP1;ratioP1;P1;durP2;ratioP2;P2;SDS_P1;SDS_P2;PMS_P1;PMS_P2;Temp;Humidity;BMP_temperature;BMP_pressure;BME280_temperature;BME280_humidity;BME280_pressure;Samples;Min_cycle;Max_cycle;Signal;HPM_P1;HPM_P2
2021/10/24 00:02:01;;;;;;;5.05;4.07;;;;;13.80;102534.00;;;;5048552;28;20657;-78
2021/10/24 00:04:29;;;;;;;4.65;3.88;;;;;13.80;102540.00;;;;5036906;28;20204;-78
2021/10/24 00:06:56;;;;;;;4.75;4.13;;;;;13.80;102534.00;;;;5028691;28;20204;-78
2021/10/24 00:09:24;;;;;;;6.30;3.90;;;;;13.80;102530.00;;;;5036348;28;20200;-78
2021/10/24 00:11:51;;;;;;;5.45;4.38;;;;;13.80;102523.00;;;;5048427;28;20744;-78
2021/10/24 00:14:18;;;;;;;6.07;4.05;;;;;13.70;102531.00;;;;5048652;28;20294;-78
2021/10/24 00:16:45;;;;;;;8.63;4.38;;;;;13.70;102525.00;;;;5047882;28;20300;-78
2021/10/24 00:19:13;;;;;;;5.63;4.03;;;;;13.70;102529.00;;;;5048035;28;20202;-78
2021/10/24 00:21:41;;;;;;;6.68;3.97;;;;;13.70;102526.00;;;;5035052;28;20219;-78
2021/10/24 00:24:08;;;;;;;5.65;4.47;;;;;13.70;102525.00;;;;5028690;28;20200;-78
2021/10/24 00:26:36;;;;;;;4.78;3.88;;;;;13.70;102526.00;;;;5028524;28;20822;-78
2021/10/24 00:29:03;;;;;;;5.85;5.05;;;;;13.70;102521.00;;;;5028274;28;20207;-77
2021/10/24 00:31:30;;;;;;;5.43;4.55;;;;;13.70;102529.00;;;;5028185;28;20220;-78
2021/10/24 00:33:59;;;;;;;5.55;3.80;;;;;13.70;102521.00;;;;5027899;28;20200;-78
2021/10/24 00:36:26;;;;;;;7.85;4.32;;;;;13.60;102520.00;;;;5028633;28;20600;-78
2021/10/24 00:38:55;;;;;;;7.05;4.97;;;;;13.60;102521.00;;;;5036731;28;20200;-78
2021/10/24 00:41:22;;;;;;;4.97;4.13;;;;;13.60;102520.00;;;;5039596;28;20728;-78
2021/10/24 00:43:49;;;;;;;5.78;4.80;;;;;13.60;102520.00;;;;5049003;28;20200;-78
2021/10/24 00:46:17;;;;;;;5.20;4.50;;;;;13.60;102520.00;;;;5048244;28;20200;-78
2021/10/24 00:48:44;;;;;;;5.10;4.45;;;;;13.60;102516.00;;;;5048592;28;20286;-78
2021/10/24 00:51:13;;;;;;;5.78;4.80;;;;;13.60;102519.00;;;;5032417;28;20204;-78
2021/10/24 00:53:40;;;;;;;11.20;5.30;;;;;13.60;102508.00;;;;5034599;28;20269;-78
2021/10/24 00:56:10;;;;;;;6.80;4.57;;;;;13.50;102514.00;;;;5045602;28;20661;-78
2021/10/24 00:58:38;;;;;;;6.85;5.00;;;;;13.50;102509.00;;;;5068363;28;20234;-78
2021/10/24 01:01:05;;;;;;;5.13;4.50;;;;;13.60;102514.00;;;;5067609;28;20203;-78
2021/10/24 01:03:32;;;;;;;4.75;4.10;;;;;13.50;102511.00;;;;5066921;28;20219;-78
2021/10/24 01:06:01;;;;;;;4.95;4.43;;;;;13.50;102509.00;;;;5067463;28;20199;-78
2021/10/24 01:08:29;;;;;;;5.65;4.38;;;;;13.50;102501.00;;;;5061078;28;20658;-78
2021/10/24 01:10:56;;;;;;;5.95;4.63;;;;;13.50;102501.00;;;;5027488;28;20192;-78
2021/10/24 01:13:25;;;;;;;6.60;4.32;;;;;13.50;102505.00;;;;5046516;28;20598;-78
2021/10/24 01:15:52;;;;;;;6.00;4.57;;;;;13.50;102499.00;;;;5046970;28;20195;-78
2021/10/24 01:18:19;;;;;;;5.03;4.53;;;;;13.50;102497.00;;;;5032979;28;20217;-78
2021/10/24 01:20:51;;;;;;;4.47;4.05;;;;;13.40;102507.00;;;;5029012;28;20670;-78
2021/10/24 01:23:22;;;;;;;6.35;4.03;;;;;13.50;102497.00;;;;5031210;28;20203;-78
2021/10/24 01:25:52;;;;;;;5.53;4.05;;;;;13.50;102494.00;;;;5032184;28;20205;-78
2021/10/24 01:28:20;;;;;;;7.20;4.28;;;;;13.40;102493.00;;;;5032223;28;20572;-78
2021/10/24 01:30:47;;;;;;;7.25;4.55;;;;;13.40;102492.00;;;;5031249;28;20230;-78
2021/10/24 01:33:14;;;;;;;8.85;4.35;;;;;13.40;102487.00;;;;5031141;28;20231;-78
2021/10/24 01:35:53;;;;;;;7.57;4.60;;;;;13.30;102486.00;;;;5031469;28;20207;-78
2021/10/24 01:38:20;;;;;;;4.97;4.05;;;;;13.40;102488.00;;;;5031587;28;20792;-78
2021/10/24 01:40:47;;;;;;;5.93;4.68;;;;;13.40;102486.00;;;;5031710;28;20226;-79
2021/10/24 01:43:15;;;;;;;9.32;4.70;;;;;13.40;102480.00;;;;5030657;28;20202;-78
2021/10/24 01:45:42;;;;;;;5.95;4.93;;;;;13.40;102474.00;;;;5035900;28;20704;-78
2021/10/24 01:48:09;;;;;;;6.22;4.38;;;;;13.40;102477.00;;;;5050962;28;20210;-78
2021/10/24 01:50:37;;;;;;;5.47;4.45;;;;;13.40;102473.00;;;;5050579;28;20210;-78
2021/10/24 01:53:06;;;;;;;6.22;4.90;;;;;13.30;102476.00;;;;5050313;28;20692;-78
2021/10/24 01:55:34;;;;;;;6.22;4.72;;;;;13.30;102470.00;;;;5051197;28;20653;-78
2021/10/24 01:58:02;;;;;;;6.25;4.57;;;;;13.30;102465.00;;;;5050310;28;20199;-78
2021/10/24 02:00:30;;;;;;;5.93;4.80;;;;;13.30;102465.00;;;;5051351;28;20206;-78
2021/10/24 02:02:59;;;;;;;5.90;4.47;;;;;13.30;102463.00;;;;5049379;28;20231;-78
2021/10/24 02:05:26;;;;;;;6.55;4.38;;;;;13.30;102462.00;;;;5054107;28;20196;-78
2021/10/24 02:07:53;;;;;;;5.78;4.43;;;;;13.30;102464.00;;;;5059190;28;20191;-78
2021/10/24 02:10:22;;;;;;;6.63;5.03;;;;;13.30;102456.00;;;;5050246;28;20202;-78
2021/10/24 02:12:49;;;;;;;5.00;4.50;;;;;13.30;102460.00;;;;5051205;28;20232;-78
2021/10/24 02:15:17;;;;;;;6.72;4.60;;;;;13.30;102451.00;;;;5050465;28;20203;-78
2021/10/24 02:17:45;;;;;;;6.78;5.07;;;;;13.30;102451.00;;;;5050535;28;20192;-78
2021/10/24 02:20:12;;;;;;;4.72;4.25;;;;;13.20;102449.00;;;;5040574;28;20204;-78
2021/10/24 02:22:40;;;;;;;6.65;4.85;;;;;13.20;102447.00;;;;5030835;28;20223;-78
2021/10/24 02:25:08;;;;;;;6.38;5.22;;;;;13.20;102436.00;;;;5030783;28;20204;-78
2021/10/24 02:27:38;;;;;;;6.82;5.25;;;;;13.20;102440.00;;;;5030661;28;20200;-79
2021/10/24 02:30:06;;;;;;;5.10;4.15;;;;;13.20;102437.00;;;;5029653;28;20291;-78
2021/10/24 02:32:34;;;;;;;6.90;5.20;;;;;13.20;102437.00;;;;5029371;28;20220;-78
2021/10/24 02:35:01;;;;;;;6.28;4.55;;;;;13.20;102438.00;;;;5029948;28;20658;-78
2021/10/24 02:37:29;;;;;;;7.47;4.40;;;;;13.20;102432.00;;;;5041903;28;20207;-78
2021/10/24 02:39:56;;;;;;;7.00;4.80;;;;;13.20;102429.00;;;;5030406;28;20211;-78
2021/10/24 02:42:23;;;;;;;6.13;5.03;;;;;13.10;102434.00;;;;5030304;28;20292;-78
2021/10/24 02:44:52;;;;;;;6.55;4.78;;;;;13.10;102423.00;;;;5030773;28;20204;-78
2021/10/24 02:47:20;;;;;;;5.75;4.32;;;;;13.10;102417.00;;;;5030118;28;20300;-78
2021/10/24 02:49:48;;;;;;;8.18;5.07;;;;;13.10;102422.00;;;;5030680;28;20227;-78
2021/10/24 02:52:16;;;;;;;4.97;4.47;;;;;13.10;102423.00;;;;5028969;28;20223;-78
2021/10/24 02:54:44;;;;;;;7.53;5.32;;;;;13.10;102425.00;;;;5043940;28;20215;-78
2021/10/24 02:57:11;;;;;;;7.93;4.82;;;;;13.10;102411.00;;;;5049262;28;20569;-78
2021/10/24 02:59:38;;;;;;;4.97;4.43;;;;;13.00;102415.00;;;;5050382;28;20195;-78
2021/10/24 03:02:07;;;;;;;4.47;4.00;;;;;13.00;102407.00;;;;5048646;28;20677;-78
2021/10/24 03:04:34;;;;;;;6.72;4.95;;;;;13.00;102413.00;;;;5050210;28;20200;-78
2021/10/24 03:07:02;;;;;;;5.10;4.20;;;;;13.00;102406.00;;;;5050263;28;20191;-78
2021/10/24 03:09:29;;;;;;;7.10;5.00;;;;;13.00;102413.00;;;;5049652;28;20215;-78
2021/10/24 03:11:56;;;;;;;7.15;4.57;;;;;13.00;102402.00;;;;5033853;28;20662;-78
2021/10/24 03:14:24;;;;;;;5.63;5.00;;;;;13.00;102403.00;;;;5029427;28;20224;-79
2021/10/24 03:16:51;;;;;;;6.88;5.20;;;;;13.00;102406.00;;;;5041889;28;20249;-78
2021/10/24 03:19:20;;;;;;;6.72;4.90;;;;;13.00;102404.00;;;;5029681;28;20207;-78
2021/10/24 03:21:48;;;;;;;5.55;4.68;;;;;12.90;102400.00;;;;5029774;28;21046;-78
2021/10/24 03:24:18;;;;;;;6.15;4.50;;;;;12.90;102398.00;;;;5029456;28;20258;-79
2021/10/24 03:26:45;;;;;;;5.57;4.78;;;;;12.90;102401.00;;;;5029747;28;20712;-78
2021/10/24 03:29:12;;;;;;;7.22;4.85;;;;;12.90;102402.00;;;;5047048;28;20207;-78
2021/10/24 03:31:40;;;;;;;7.68;4.82;;;;;12.90;102398.00;;;;5049272;28;20211;-78
2021/10/24 03:34:07;;;;;;;6.78;5.10;;;;;12.90;102402.00;;;;5044176;28;20224;-79
2021/10/24 03:36:36;;;;;;;6.55;5.10;;;;;12.80;102394.00;;;;5029367;28;20208;-78
2021/10/24 03:39:03;;;;;;;8.18;5.70;;;;;12.80;102405.00;;;;5040490;28;20222;-78
2021/10/24 03:41:31;;;;;;;6.45;4.85;;;;;12.80;102401.00;;;;5048516;28;20231;-78
2021/10/24 03:43:58;;;;;;;7.05;5.28;;;;;12.80;102404.00;;;;5048526;28;20558;-78
2021/10/24 03:46:25;;;;;;;6.03;4.97;;;;;12.80;102399.00;;;;5029792;28;20205;-78
2021/10/24 03:48:53;;;;;;;5.63;4.72;;;;;12.80;102407.00;;;;5035635;28;20222;-78
2021/10/24 03:51:20;;;;;;;5.07;4.38;;;;;12.70;102394.00;;;;5048962;28;20597;-78
2021/10/24 03:53:49;;;;;;;8.63;5.18;;;;;12.70;102392.00;;;;5049251;28;20253;-78
2021/10/24 03:56:16;;;;;;;6.63;4.57;;;;;12.70;102391.00;;;;5048248;28;20689;-78
2021/10/24 03:58:44;;;;;;;7.53;5.10;;;;;12.70;102396.00;;;;5048982;28;20211;-78
2021/10/24 04:01:11;;;;;;;6.32;5.00;;;;;12.70;102392.00;;;;5047467;28;20266;-78
2021/10/24 04:03:38;;;;;;;5.60;4.93;;;;;12.70;102398.00;;;;5048977;28;20219;-78
2021/10/24 04:06:06;;;;;;;6.03;5.00;;;;;12.70;102398.00;;;;5047835;28;20298;-78
2021/10/24 04:08:33;;;;;;;6.65;5.10;;;;;12.60;102397.00;;;;5039165;28;20572;-78
2021/10/24 04:11:02;;;;;;;6.35;4.80;;;;;12.60;102398.00;;;;5028289;28;20231;-78
2021/10/24 04:13:29;;;;;;;7.55;5.25;;;;;12.60;102384.00;;;;5028377;28;20227;-78
2021/10/24 04:15:56;;;;;;;8.55;5.43;;;;;12.60;102388.00;;;;5034999;28;20223;-78
2021/10/24 04:18:23;;;;;;;7.07;5.32;;;;;12.60;102392.00;;;;5032524;28;20211;-78
2021/10/24 04:20:51;;;;;;;5.28;4.63;;;;;12.60;102385.00;;;;5047523;28;20210;-78
2021/10/24 04:23:18;;;;;;;6.60;5.15;;;;;12.60;102395.00;;;;5049158;28;20612;-78
2021/10/24 04:25:45;;;;;;;6.70;5.13;;;;;12.60;102390.00;;;;5059547;28;20253;-78
2021/10/24 04:28:14;;;;;;;6.25;4.78;;;;;12.60;102394.00;;;;5047908;28;20473;-78
2021/10/24 04:30:41;;;;;;;5.57;4.57;;;;;12.60;102391.00;;;;5047538;28;20286;-78
2021/10/24 04:33:09;;;;;;;8.07;5.20;;;;;12.60;102394.00;;;;5047758;28;20701;-78
2021/10/24 04:35:36;;;;;;;6.00;4.78;;;;;12.50;102387.00;;;;5031335;28;20204;-78
2021/10/24 04:38:03;;;;;;;8.35;5.65;;;;;12.50;102384.00;;;;5033438;28;20238;-78
2021/10/24 04:40:30;;;;;;;6.85;4.85;;;;;12.50;102385.00;;;;5047355;28;20752;-78
2021/10/24 04:42:58;;;;;;;7.63;4.82;;;;;12.50;102388.00;;;;5047300;28;20199;-78
2021/10/24 04:45:26;;;;;;;6.45;5.03;;;;;12.50;102389.00;;;;5047765;28;20195;-78
2021/10/24 04:47:53;;;;;;;7.35;5.60;;;;;12.50;102384.00;;;;5047561;28;20192;-78
2021/10/24 04:50:21;;;;;;;7.10;5.40;;;;;12.50;102387.00;;;;5048344;28;20199;-78
2021/10/24 04:52:49;;;;;;;5.78;4.82;;;;;12.50;102376.00;;;;5041412;28;20208;-78
2021/10/24 04:55:17;;;;;;;6.35;4.55;;;;;12.40;102375.00;;;;5027936;28;20740;-78
2021/10/24 04:57:44;;;;;;;6.22;4.63;;;;;12.40;102382.00;;;;5032509;28;20204;-78
2021/10/24 05:00:12;;;;;;;6.63;5.38;;;;;12.40;102377.00;;;;5032493;28;20230;-78
2021/10/24 05:02:41;;;;;;;7.32;4.63;;;;;12.40;102385.00;;;;5031928;28;20216;-78
2021/10/24 05:05:10;;;;;;;7.22;5.00;;;;;12.40;102373.00;;;;5031382;28;20677;-78
2021/10/24 05:07:38;;;;;;;6.05;5.10;;;;;12.40;102370.00;;;;5031587;28;20227;-78
2021/10/24 05:10:06;;;;;;;6.90;4.63;;;;;12.40;102363.00;;;;5038231;28;20196;-78
2021/10/24 05:12:34;;;;;;;5.07;4.40;;;;;12.40;102361.00;;;;5031701;28;20208;-78
2021/10/24 05:15:01;;;;;;;7.93;5.55;;;;;12.40;102365.00;;;;5031334;28;20232;-78
2021/10/24 05:17:28;;;;;;;7.07;4.45;;;;;12.40;102357.00;;;;5051212;28;20196;-78
2021/10/24 05:19:57;;;;;;;5.18;4.35;;;;;12.40;102357.00;;;;5050578;28;20199;-78
2021/10/24 05:22:24;;;;;;;7.43;4.65;;;;;12.40;102352.00;;;;5051758;28;20665;-78
2021/10/24 05:24:52;;;;;;;5.43;4.60;;;;;12.30;102347.00;;;;5051357;28;20334;-78
2021/10/24 05:27:19;;;;;;;6.82;4.32;;;;;12.30;102350.00;;;;5039714;28;20208;-78
2021/10/24 05:29:46;;;;;;;5.78;4.88;;;;;12.30;102348.00;;;;5031424;28;20565;-78
2021/10/24 05:32:13;;;;;;;6.30;4.68;;;;;12.30;102345.00;;;;5049564;28;20207;-78
2021/10/24 05:34:42;;;;;;;6.10;4.78;;;;;12.30;102345.00;;;;5043273;28;20391;-78
2021/10/24 05:37:10;;;;;;;5.35;4.40;;;;;12.30;102343.00;;;;5062355;28;20223;-78
2021/10/24 05:39:38;;;;;;;5.07;4.53;;;;;12.30;102341.00;;;;5051011;28;20207;-78
2021/10/24 05:42:05;;;;;;;4.70;4.15;;;;;12.30;102338.00;;;;5049862;28;20234;-78
2021/10/24 05:44:32;;;;;;;4.75;4.25;;;;;12.30;102343.00;;;;5038841;28;20208;-78
2021/10/24 05:47:00;;;;;;;5.07;4.45;;;;;12.20;102347.00;;;;5030356;28;20583;-78
2021/10/24 05:49:27;;;;;;;4.95;3.88;;;;;12.20;102332.00;;;;5030734;28;20662;-78
2021/10/24 05:51:54;;;;;;;5.82;4.43;;;;;12.20;102327.00;;;;5031237;28;20208;-78
2021/10/24 05:54:23;;;;;;;5.70;4.60;;;;;12.20;102334.00;;;;5031067;28;20220;-78
2021/10/24 05:56:50;;;;;;;5.30;4.05;;;;;12.20;102332.00;;;;5031369;28;20557;-79
2021/10/24 05:59:17;;;;;;;4.57;3.78;;;;;12.20;102326.00;;;;5031178;28;20857;-78
2021/10/24 06:01:44;;;;;;;5.93;4.25;;;;;12.10;102314.00;;;;5034404;28;20215;-78
2021/10/24 06:04:12;;;;;;;4.72;4.25;;;;;12.10;102314.00;;;;5030496;28;20936;-78
2021/10/24 06:06:39;;;;;;;4.38;3.65;;;;;12.10;102315.00;;;;5030465;28;20203;-78
2021/10/24 06:09:06;;;;;;;5.50;4.68;;;;;12.10;102306.00;;;;5040052;28;20853;-78
2021/10/24 06:11:46;;;;;;;4.95;3.88;;;;;12.10;102309.00;;;;5050584;28;20202;-78
2021/10/24 06:14:13;;;;;;;4.47;3.47;;;;;12.10;102304.00;;;;5051305;28;20849;-78
2021/10/24 06:16:41;;;;;;;4.80;3.72;;;;;12.10;102301.00;;;;5051000;28;20388;-78
2021/10/24 06:19:08;;;;;;;6.15;4.32;;;;;12.10;102297.00;;;;5033316;28;20205;-78
2021/10/24 06:21:35;;;;;;;4.65;3.90;;;;;12.10;102290.00;;;;5030109;28;20323;-79
2021/10/24 06:24:03;;;;;;;6.03;4.13;;;;;12.10;102292.00;;;;5030684;28;20207;-78
2021/10/24 06:26:30;;;;;;;4.72;3.90;;;;;12.10;102289.00;;;;5031513;28;20634;-78
2021/10/24 06:28:59;;;;;;;5.22;4.20;;;;;12.00;102290.00;;;;5029780;28;20200;-78
2021/10/24 06:31:26;;;;;;;5.25;3.70;;;;;12.00;102282.00;;;;5029863;28;20585;-78
2021/10/24 06:33:55;;;;;;;4.82;3.75;;;;;12.00;102275.00;;;;5033123;28;20227;-78
2021/10/24 06:36:22;;;;;;;4.80;3.80;;;;;12.00;102273.00;;;;5048508;28;20207;-78
2021/10/24 06:38:49;;;;;;;4.40;3.58;;;;;12.00;102275.00;;;;5050029;28;20200;-78
2021/10/24 06:41:16;;;;;;;6.55;3.70;;;;;12.00;102283.00;;;;5049609;28;20620;-78
2021/10/24 06:43:43;;;;;;;5.88;3.92;;;;;12.00;102278.00;;;;5059332;28;20206;-78
2021/10/24 06:46:12;;;;;;;5.47;4.00;;;;;12.00;102287.00;;;;5051419;28;20199;-78
2021/10/24 06:48:39;;;;;;;5.22;3.47;;;;;12.00;102279.00;;;;5049747;28;20210;-78
2021/10/24 06:51:06;;;;;;;5.60;4.07;;;;;12.00;102277.00;;;;5047925;28;20732;-78
2021/10/24 06:53:34;;;;;;;5.63;3.88;;;;;12.00;102278.00;;;;5029939;28;20220;-78
2021/10/24 06:56:01;;;;;;;6.95;4.53;;;;;12.10;102284.00;;;;5032730;28;20195;-78
2021/10/24 06:58:28;;;;;;;5.57;3.83;;;;;12.10;102280.00;;;;5048209;28;20187;-78
2021/10/24 07:00:55;;;;;;;4.15;3.33;;;;;12.10;102283.00;;;;5049480;28;20249;-78
2021/10/24 07:03:24;;;;;;;5.38;4.07;;;;;12.10;102277.00;;;;5049407;28;20215;-78
2021/10/24 07:05:51;;;;;;;5.03;3.67;;;;;12.10;102273.00;;;;5048705;28;20203;-78
2021/10/24 07:08:18;;;;;;;5.75;3.97;;;;;12.10;102270.00;;;;5047116;28;20253;-79
2021/10/24 07:10:45;;;;;;;5.22;3.65;;;;;12.10;102274.00;;;;5029794;28;20227;-78
2021/10/24 07:13:13;;;;;;;5.40;3.65;;;;;12.20;102280.00;;;;5029074;28;20208;-78
2021/10/24 07:15:40;;;;;;;4.45;3.83;;;;;12.20;102277.00;;;;5031787;28;20226;-78
2021/10/24 07:18:07;;;;;;;3.97;3.33;;;;;12.20;102283.00;;;;5048865;28;20206;-78
2021/10/24 07:20:36;;;;;;;5.35;3.65;;;;;12.20;102285.00;;;;5048187;28;20203;-78
2021/10/24 07:23:03;;;;;;;4.97;3.55;;;;;12.30;102284.00;;;;5048597;28;20702;-78
2021/10/24 07:25:30;;;;;;;5.05;3.45;;;;;12.30;102278.00;;;;5045202;28;20212;-78
2021/10/24 07:27:58;;;;;;;4.32;3.65;;;;;12.40;102290.00;;;;5029237;28;20191;-78
2021/10/24 07:30:25;;;;;;;4.72;3.40;;;;;12.40;102288.00;;;;5028773;28;20204;-78
2021/10/24 07:32:52;;;;;;;11.55;4.30;;;;;12.50;102282.00;;;;5029605;28;20200;-78
2021/10/24 07:35:19;;;;;;;6.00;3.88;;;;;12.50;102289.00;;;;5029195;28;20289;-79
2021/10/24 07:37:48;;;;;;;4.15;3.47;;;;;12.50;102281.00;;;;5029548;28;20311;-79
2021/10/24 07:40:18;;;;;;;5.22;3.58;;;;;12.60;102277.00;;;;5029302;28;20241;-79
2021/10/24 07:42:45;;;;;;;5.82;4.05;;;;;12.60;102275.00;;;;5034498;28;20217;-79
2021/10/24 07:45:13;;;;;;;5.93;4.80;;;;;12.70;102269.00;;;;5048620;28;20219;-79
2021/10/24 07:47:40;;;;;;;5.38;3.80;;;;;12.70;102267.00;;;;5048866;28;20549;-79
2021/10/24 07:50:10;;;;;;;6.93;4.10;;;;;12.80;102274.00;;;;5037133;28;20192;-79
2021/10/24 07:52:38;;;;;;;4.93;3.67;;;;;12.80;102272.00;;;;5028928;28;20195;-79
2021/10/24 07:55:07;;;;;;;4.70;3.75;;;;;12.90;102267.00;;;;5050274;28;20225;-79
2021/10/24 07:57:35;;;;;;;5.05;4.07;;;;;12.90;102265.00;;;;5047117;28;20204;-79
2021/10/24 08:00:03;;;;;;;4.88;3.70;;;;;13.00;102267.00;;;;5029232;28;20208;-79
2021/10/24 08:02:32;;;;;;;4.60;3.35;;;;;13.00;102257.00;;;;5028287;28;20204;-79
2021/10/24 08:05:01;;;;;;;4.60;3.67;;;;;13.10;102259.00;;;;5028056;28;20204;-79
2021/10/24 08:07:29;;;;;;;5.85;3.97;;;;;13.10;102258.00;;;;5026915;28;20576;-79
2021/10/24 08:09:56;;;;;;;5.13;3.78;;;;;13.20;102244.00;;;;5028970;28;20208;-79
2021/10/24 08:12:25;;;;;;;4.05;3.63;;;;;13.20;102249.00;;;;5029212;28;20215;-80
2021/10/24 08:14:52;;;;;;;4.20;3.70;;;;;13.30;102257.00;;;;5028561;28;20319;-79
2021/10/24 08:17:19;;;;;;;6.18;3.97;;;;;13.30;102253.00;;;;5033422;28;20207;-79
2021/10/24 08:19:47;;;;;;;4.38;3.53;;;;;13.40;102250.00;;;;5037754;28;20203;-79
2021/10/24 08:22:18;;;;;;;4.40;3.75;;;;;13.40;102246.00;;;;5048185;28;20195;-79
2021/10/24 08:24:45;;;;;;;4.53;3.50;;;;;13.50;102250.00;;;;5049070;28;20207;-79
2021/10/24 08:27:12;;;;;;;3.97;3.30;;;;;13.50;102251.00;;;;5047515;28;21253;-79
2021/10/24 08:29:41;;;;;;;5.68;3.45;;;;;13.60;102247.00;;;;5048741;28;20214;-79
2021/10/24 08:32:10;;;;;;;7.00;3.88;;;;;13.60;102247.00;;;;5051394;28;20203;-78
2021/10/24 08:34:39;;;;;;;3.95;3.55;;;;;13.70;102250.00;;;;5047782;28;20704;-79
2021/10/24 08:37:06;;;;;;;5.30;3.67;;;;;13.70;102245.00;;;;5052383;28;20673;-78
2021/10/24 08:39:33;;;;;;;5.38;3.97;;;;;13.80;102238.00;;;;5052807;28;20195;-79
2021/10/24 08:42:02;;;;;;;6.20;3.90;;;;;13.80;102235.00;;;;5051345;28;20230;-79
2021/10/24 08:44:29;;;;;;;6.68;3.78;;;;;13.90;102229.00;;;;5051893;28;20208;-78
2021/10/24 08:46:58;;;;;;;4.57;3.83;;;;;13.90;102223.00;;;;5052065;28;20253;-79
2021/10/24 08:49:26;;;;;;;5.57;3.55;;;;;14.00;102231.00;;;;5052078;28;20223;-79
2021/10/24 08:51:53;;;;;;;4.13;3.13;;;;;14.00;102224.00;;;;5036776;28;20682;-78
2021/10/24 08:54:24;;;;;;;4.53;3.55;;;;;14.10;102225.00;;;;5032074;28;20216;-79
2021/10/24 08:56:51;;;;;;;5.40;3.72;;;;;14.10;102215.00;;;;5032301;28;20235;-79
2021/10/24 08:59:19;;;;;;;5.72;3.10;;;;;14.20;102216.00;;;;5031648;28;20689;-79
2021/10/24 09:01:53;;;;;;;3.70;3.03;;;;;14.20;102225.00;;;;5032448;28;20197;-78
2021/10/24 09:04:22;;;;;;;6.05;3.30;;;;;14.30;102212.00;;;;5035555;28;20227;-79
2021/10/24 09:06:55;;;;;;;5.03;3.53;;;;;14.40;102208.00;;;;5063416;28;20195;-79
2021/10/24 09:09:25;;;;;;;4.72;3.25;;;;;14.40;102206.00;;;;5032287;28;20212;-79
2021/10/24 09:11:57;;;;;;;6.50;3.53;;;;;14.50;102201.00;;;;5031919;28;20204;-79
2021/10/24 09:14:42;;;;;;;5.18;3.90;;;;;14.50;102205.00;;;;5032152;28;20596;-78
2021/10/24 09:17:11;;;;;;;4.75;3.20;;;;;14.70;102202.00;;;;5046146;28;20195;-78
2021/10/24 09:19:43;;;;;;;7.57;3.20;;;;;14.70;102202.00;;;;5050183;28;20195;-78
2021/10/24 09:22:19;;;;;;;4.30;3.42;;;;;14.70;102193.00;;;;5051861;28;20215;-79
2021/10/24 09:25:07;;;;;;;4.28;3.25;;;;;14.80;102197.00;;;;5045167;28;20200;-78
2021/10/24 09:27:40;;;;;;;5.20;3.28;;;;;15.00;102198.00;;;;5036945;28;20203;-78
2021/10/24 09:30:10;;;;;;;5.57;3.65;;;;;15.10;102191.00;;;;5050579;28;20211;-78
2021/10/24 09:32:56;;;;;;;4.93;3.60;;;;;15.10;102194.00;;;;5050824;28;20615;-78
2021/10/24 09:35:27;;;;;;;4.40;3.33;;;;;15.30;102189.00;;;;5030955;28;20231;-78
2021/10/24 09:37:55;;;;;;;5.07;3.50;;;;;15.40;102187.00;;;;5031234;28;20215;-79
2021/10/24 09:40:27;;;;;;;4.18;3.30;;;;;15.50;102188.00;;;;5029936;28;20208;-79
2021/10/24 09:43:10;;;;;;;5.50;3.78;;;;;15.60;102178.00;;;;5031177;28;20208;-78
2021/10/24 09:45:38;;;;;;;4.53;3.08;;;;;15.80;102173.00;;;;5030640;28;20192;-78
2021/10/24 09:48:12;;;;;;;4.53;3.38;;;;;15.90;102174.00;;;;5030645;28;20215;-78
2021/10/24 09:50:46;;;;;;;4.57;3.75;;;;;16.00;102182.00;;;;5046185;28;20200;-78
2021/10/24 09:53:15;;;;;;;4.57;3.22;;;;;16.10;102176.00;;;;5050300;28;20211;-78
2021/10/24 09:55:44;;;;;;;5.43;3.90;;;;;16.20;102174.00;;;;5049725;28;20608;-78
2021/10/24 09:58:13;;;;;;;3.85;3.38;;;;;16.30;102176.00;;;;5049044;28;20195;-78
2021/10/24 10:00:41;;;;;;;4.97;3.55;;;;;16.40;102168.00;;;;5030473;28;20232;-79
2021/10/24 10:03:09;;;;;;;5.53;3.70;;;;;16.50;102171.00;;;;5030494;28;20235;-79
2021/10/24 10:05:37;;;;;;;3.63;3.13;;;;;16.60;102176.00;;;;5029880;28;20580;-79
2021/10/24 10:08:07;;;;;;;6.40;3.53;;;;;16.60;102174.00;;;;5030103;28;20741;-78
2021/10/24 10:10:40;;;;;;;4.78;3.30;;;;;16.70;102164.00;;;;5030594;28;20204;-79
2021/10/24 10:13:12;;;;;;;4.43;3.13;;;;;16.80;102168.00;;;;5030682;28;20211;-79
2021/10/24 10:15:41;;;;;;;4.97;3.65;;;;;17.00;102164.00;;;;5031580;28;20266;-78
2021/10/24 10:18:09;;;;;;;4.47;3.67;;;;;17.10;102173.00;;;;5058609;28;20198;-79
2021/10/24 10:20:49;;;;;;;4.57;3.42;;;;;17.00;102161.00;;;;5049974;28;20212;-79
2021/10/24 10:23:21;;;;;;;3.28;2.78;;;;;17.20;102164.00;;;;5049584;28;20229;-79
2021/10/24 10:25:48;;;;;;;4.63;3.30;;;;;17.20;102157.00;;;;5049625;28;20211;-79
2021/10/24 10:28:42;;;;;;;4.20;3.20;;;;;17.30;102163.00;;;;5049699;28;20196;-79
2021/10/24 10:31:13;;;;;;;4.38;3.45;;;;;17.40;102158.00;;;;5049828;28;20195;-79
2021/10/24 10:33:41;;;;;;;5.20;3.45;;;;;17.50;102154.00;;;;5041086;28;20744;-79
2021/10/24 10:36:09;;;;;;;4.70;3.10;;;;;17.60;102150.00;;;;5049450;28;20219;-79
2021/10/24 10:38:40;;;;;;;5.63;3.00;;;;;17.70;102157.00;;;;5050604;28;20207;-79
2021/10/24 10:41:09;;;;;;;3.80;3.17;;;;;17.80;102155.00;;;;5049403;28;20625;-78
2021/10/24 10:43:37;;;;;;;5.82;3.40;;;;;17.80;102154.00;;;;5049847;28;20215;-78
2021/10/24 10:46:06;;;;;;;3.80;3.38;;;;;17.90;102150.00;;;;5050277;28;20208;-78
2021/10/24 10:48:40;;;;;;;4.43;3.40;;;;;18.00;102151.00;;;;5049495;28;20209;-78
2021/10/24 10:51:18;;;;;;;3.58;2.78;;;;;18.00;102144.00;;;;5032384;28;20251;-78
2021/10/24 10:54:05;;;;;;;4.53;3.25;;;;;18.10;102149.00;;;;5028992;28;20242;-78
2021/10/24 10:56:49;;;;;;;4.35;3.72;;;;;18.20;102142.00;;;;5029891;28;20590;-78
2021/10/24 10:59:35;;;;;;;4.07;3.38;;;;;18.30;102146.00;;;;5029761;28;20200;-78
2021/10/24 11:02:26;;;;;;;3.50;2.67;;;;;18.30;102145.00;;;;5029530;28;20200;-78
2021/10/24 11:04:56;;;;;;;4.13;3.47;;;;;18.40;102143.00;;;;5028773;28;20212;-79
2021/10/24 11:07:37;;;;;;;4.88;3.72;;;;;18.40;102135.00;;;;5040010;28;20195;-78
2021/10/24 11:10:07;;;;;;;5.00;3.35;;;;;18.50;102137.00;;;;5048808;28;20196;-78
2021/10/24 11:12:43;;;;;;;5.40;3.55;;;;;18.50;102132.00;;;;5048332;28;20206;-78
2021/10/24 11:15:30;;;;;;;5.03;3.42;;;;;18.60;102135.00;;;;5048587;28;20226;-79
2021/10/24 11:18:04;;;;;;;5.45;3.70;;;;;18.80;102128.00;;;;5048478;28;20283;-78
2021/10/24 11:20:45;;;;;;;4.00;3.60;;;;;18.80;102121.00;;;;5048050;28;20208;-78
2021/10/24 11:23:20;;;;;;;3.65;2.95;;;;;18.80;102125.00;;;;5047099;28;20214;-79
2021/10/24 11:25:51;;;;;;;5.03;3.65;;;;;18.90;102126.00;;;;5028559;28;20247;-78
2021/10/24 11:28:23;;;;;;;7.72;3.85;;;;;18.90;102122.00;;;;5048192;28;20199;-78
2021/10/24 11:31:01;;;;;;;4.82;3.28;;;;;18.90;102130.00;;;;5048928;28;20286;-78
2021/10/24 11:33:29;;;;;;;3.25;2.78;;;;;19.00;102120.00;;;;5035562;28;20199;-78
2021/10/24 11:35:56;;;;;;;5.05;3.08;;;;;19.00;102125.00;;;;5028166;28;20694;-78
2021/10/24 11:38:28;;;;;;;4.50;3.28;;;;;19.00;102120.00;;;;5028830;28;20204;-78
2021/10/24 11:40:56;;;;;;;5.07;2.90;;;;;19.10;102110.00;;;;5035196;28;20262;-79
2021/10/24 11:43:25;;;;;;;3.03;2.72;;;;;19.20;102112.00;;;;5048377;28;20200;-78
2021/10/24 11:45:54;;;;;;;6.43;3.42;;;;;19.20;102122.00;;;;5048581;28;20204;-78
2021/10/24 11:48:24;;;;;;;6.63;3.75;;;;;19.30;102112.00;;;;5047201;28;20577;-79
2021/10/24 11:50:54;;;;;;;3.13;2.75;;;;;19.30;102104.00;;;;5047918;28;20689;-78
2021/10/24 11:53:28;;;;;;;4.32;3.13;;;;;19.30;102099.00;;;;5048290;28;20294;-78
2021/10/24 11:55:59;;;;;;;3.42;3.03;;;;;19.30;102092.00;;;;5048262;28;20234;-78
2021/10/24 12:01:15;;;;;;;3.75;3.33;;;;;19.40;102082.00;;;;5016831;28;20211;-78
2021/10/24 12:03:43;;;;;;;3.28;2.75;;;;;19.40;102088.00;;;;5028551;28;20255;-78
2021/10/24 12:06:12;;;;;;;7.55;3.10;;;;;19.40;102093.00;;;;5027765;28;20200;-78
2021/10/24 12:08:50;;;;;;;3.47;3.15;;;;;19.40;102091.00;;;;5028817;28;20223;-78
2021/10/24 12:11:22;;;;;;;5.95;3.28;;;;;19.40;102088.00;;;;5029003;28;20213;-78
2021/10/24 12:13:50;;;;;;;4.13;3.08;;;;;19.50;102087.00;;;;5029118;28;20574;-78
2021/10/24 12:16:26;;;;;;;5.13;3.05;;;;;19.50;102089.00;;;;5034216;28;20681;-78
2021/10/24 12:19:16;;;;;;;4.78;3.22;;;;;19.50;102082.00;;;;5047640;28;20207;-78
2021/10/24 12:22:06;;;;;;;4.60;3.00;;;;;19.50;102082.00;;;;5047918;28;20662;-79